Barton-upon-Humber, United Kingdom
Current Conditions -  °F | °C
As of 8:20 AM on Friday 24 Oct 2014 (Local Time) from EGNJ Reporting Station
Broken Clouds Broken Clouds  
Wind Chill: 14°   Ceiling: 2200
Heat Index: 14°   Visibility: 6mi
Dew Point: 13°   Wind: 15mph
Humidity: 94%   Direction: 210°SSW
Pressure: 29.88"   Gusts: NA
Location:  53.68°N, 0.44°W
Report Text: EGNJ 240720Z 21013KT 9000 FEW012 BKN022 14/13 Q1012
Loading
Personal Weather Stations






























Interactive Weather Map
Tropical Storm Tracking
New forecast layout! Learn more

10-Day Weather Forecast

Advertisements
Track Severe Weather on mobile